Time;durP1;ratioP1;P1;durP2;ratioP2;P2;SDS_P1;SDS_P2;PMS_P1;PMS_P2;Temp;Humidity;BMP_temperature;BMP_pressure;BME280_temperature;BME280_humidity;BME280_pressure;Samples;Min_cycle;Max_cycle;Signal;HPM_P1;HPM_P2
2023/04/18 08:36:18;;;;;;;26.30;14.75;;;;;;;7.67;85.59;96999.19;2093960;27;20586;-60
2023/04/18 08:37:20;;;;;;;28.05;14.65;;;;;;;7.56;85.54;96997.78;2092132;28;20203;-60
2023/04/18 08:43:16;;;;;;;25.52;14.85;;;;;;;7.50;85.89;97004.84;2098670;27;21129;-60
2023/04/18 08:45:30;;;;;;;22.67;13.57;;;;;;;7.67;85.19;97000.94;2068222;27;21036;-60
2023/04/18 08:47:42;;;;;;;23.73;14.85;;;;;;;7.98;84.04;97013.91;2082718;28;20560;-60
2023/04/18 08:49:56;;;;;;;26.13;14.60;;;;;;;7.98;84.83;97015.69;2083254;28;20573;-60
2023/04/18 08:52:12;;;;;;;25.63;14.43;;;;;;;8.08;83.25;97008.47;2086407;28;20563;-60
2023/04/18 08:55:56;;;;;;;24.05;14.77;;;;;;;8.28;83.76;97019.16;2090967;28;20900;-60
2023/04/18 08:58:05;;;;;;;29.85;14.88;;;;;;;8.26;82.78;97014.88;2083567;28;20552;-60
2023/04/18 09:04:44;;;;;;;24.45;13.85;;;;;;;8.30;83.48;97022.56;2082573;27;20557;-59
2023/04/18 09:26:04;;;;;;;30.75;15.80;;;;;;;8.50;84.11;97026.34;2085205;28;20573;-58
2023/04/18 10:13:04;;;;;;;23.35;14.77;;;;;;;9.02;82.73;97030.81;2083808;28;20548;-59
2023/04/18 10:15:14;;;;;;;22.17;14.20;;;;;;;9.18;83.22;97028.56;2079737;28;20563;-59
2023/04/18 10:17:56;;;;;;;22.90;14.50;;;;;;;9.39;82.26;97034.81;2099771;27;20575;-59
2023/04/18 10:20:19;;;;;;;26.38;14.48;;;;;;;9.64;81.42;97021.78;2083698;28;20573;-59
2023/04/18 10:22:42;;;;;;;25.08;14.75;;;;;;;9.43;81.45;97016.44;2088964;27;20563;-59
2023/04/18 10:23:47;;;;;;;24.65;14.75;;;;;;;9.53;82.28;97024.75;2092494;28;20199;-59
2023/04/18 10:24:54;;;;;;;25.55;13.88;;;;;;;9.56;82.46;97019.47;2085253;28;20704;-58
2023/04/18 10:25:57;;;;;;;27.73;14.18;;;;;;;9.89;81.44;97027.00;2077935;28;20288;-59
2023/04/18 10:26:59;;;;;;;27.23;16.33;;;;;;;9.86;81.15;97015.81;2076180;28;20250;-59
2023/04/18 10:28:01;;;;;;;26.92;15.13;;;;;;;10.01;81.43;97020.47;2078001;28;20208;-59
2023/04/18 10:29:03;;;;;;;24.20;15.18;;;;;;;10.06;80.71;97022.94;2078644;28;20194;-59
2023/04/18 10:30:05;;;;;;;25.83;15.80;;;;;;;10.21;80.17;97024.97;2075718;28;20772;-59
2023/04/18 10:31:09;;;;;;;24.70;15.05;;;;;;;10.01;80.55;97017.03;2075301;28;20692;-59
2023/04/18 10:36:26;;;;;;;23.08;14.30;;;;;;;9.94;80.46;97021.59;2092113;27;20757;-59
2023/04/18 10:44:07;;;;;;;25.70;13.95;;;;;;;10.02;80.35;97008.25;2082730;28;20576;-59
2023/04/18 10:45:22;;;;;;;22.23;14.02;;;;;;;9.82;80.34;97009.84;2076076;28;20712;-58
2023/04/18 10:46:24;;;;;;;23.20;13.40;;;;;;;9.93;79.89;97012.09;2073527;28;20208;-59
2023/04/18 10:47:33;;;;;;;22.33;13.68;;;;;;;9.94;79.40;97004.19;2074474;28;20203;-59
2023/04/18 10:48:37;;;;;;;23.13;14.80;;;;;;;10.21;79.54;97024.09;2076036;28;20213;-59
2023/04/18 10:49:52;;;;;;;22.05;13.70;;;;;;;10.40;78.95;97014.72;2070250;28;20601;-59
2023/04/18 10:51:12;;;;;;;24.77;14.30;;;;;;;10.33;77.94;97014.97;2066093;28;20338;-59
2023/04/18 10:52:14;;;;;;;23.77;11.98;;;;;;;10.48;78.06;97019.63;2066090;28;20581;-59
2023/04/18 10:53:16;;;;;;;23.33;14.30;;;;;;;10.34;77.34;97014.91;2068927;28;20200;-59
2023/04/18 10:54:45;;;;;;;19.20;12.20;;;;;;;10.11;76.81;97015.78;2067184;28;20203;-59
2023/04/18 10:55:53;;;;;;;19.10;12.65;;;;;;;10.37;77.86;97014.81;2066174;28;20217;-59
2023/04/18 10:57:02;;;;;;;20.80;12.75;;;;;;;10.50;77.38;97014.34;2065319;28;20261;-59
2023/04/18 10:58:04;;;;;;;20.88;12.40;;;;;;;10.58;76.45;97012.31;2065503;28;20228;-58
2023/04/18 10:59:08;;;;;;;20.95;12.90;;;;;;;10.51;75.56;97011.69;2064937;28;20206;-59
2023/04/18 11:00:12;;;;;;;18.38;12.10;;;;;;;10.34;76.07;97007.09;2066045;28;20222;-59
2023/04/18 11:01:18;;;;;;;21.83;13.05;;;;;;;9.75;77.43;97009.22;2065235;28;20246;-59
2023/04/18 11:02:31;;;;;;;22.42;12.68;;;;;;;10.21;77.26;97008.44;2063945;28;20290;-59
2023/04/18 11:03:33;;;;;;;22.35;12.30;;;;;;;10.50;76.85;97007.38;2064807;28;20198;-59
2023/04/18 11:04:36;;;;;;;18.15;11.50;;;;;;;10.69;75.96;97010.13;2061577;28;20278;-60
2023/04/18 11:05:37;;;;;;;93.85;49.45;;;;;;;10.67;74.91;96993.66;2060169;28;20209;-59
2023/04/18 11:06:50;;;;;;;30.48;18.15;;;;;;;9.99;75.55;96992.75;2061132;28;20196;-60
2023/04/18 11:07:52;;;;;;;19.67;13.05;;;;;;;10.08;75.40;97002.81;2064548;28;20227;-60
2023/04/18 11:09:13;;;;;;;18.95;11.18;;;;;;;9.84;75.54;97004.56;2066119;28;20716;-60
2023/04/18 11:10:18;;;;;;;17.80;10.90;;;;;;;10.02;76.27;97001.31;2062263;28;20225;-59
2023/04/18 11:11:20;;;;;;;21.88;12.10;;;;;;;10.54;75.54;97002.88;2062690;28;20205;-60
2023/04/18 11:12:22;;;;;;;19.50;11.75;;;;;;;10.86;74.02;96995.56;2064099;28;20208;-60
2023/04/18 11:13:25;;;;;;;18.35;12.20;;;;;;;11.05;73.47;96993.88;2065856;28;20258;-61
2023/04/18 11:14:44;;;;;;;18.58;11.05;;;;;;;11.05;72.72;96998.25;2064463;28;20230;-60
2023/04/18 11:15:45;;;;;;;17.27;11.60;;;;;;;11.06;73.56;96992.13;2064695;28;20262;-60
2023/04/18 11:16:47;;;;;;;16.52;10.40;;;;;;;11.28;73.86;97000.75;2064154;28;20205;-59
2023/04/18 11:18:02;;;;;;;17.70;11.32;;;;;;;11.37;73.81;96998.69;2065513;28;20205;-60
2023/04/18 11:19:22;;;;;;;18.95;11.55;;;;;;;11.62;73.60;96997.63;2065662;28;20207;-60
2023/04/18 11:20:25;;;;;;;15.85;10.40;;;;;;;11.63;73.34;96992.34;2063349;28;20228;-60
2023/04/18 11:21:27;;;;;;;23.52;10.80;;;;;;;11.54;72.99;96980.50;2061694;28;20253;-59
2023/04/18 11:22:31;;;;;;;19.27;12.18;;;;;;;11.66;73.20;96993.97;2064231;28;20217;-60
2023/04/18 11:23:32;;;;;;;18.60;11.70;;;;;;;11.68;72.88;96985.16;2065313;28;20198;-60
2023/04/18 11:24:34;;;;;;;18.27;11.30;;;;;;;11.84;72.79;96990.53;2063578;28;20213;-60
2023/04/18 11:25:36;;;;;;;17.75;11.15;;;;;;;11.82;73.29;96991.53;2064272;28;20693;-60
2023/04/18 11:26:37;;;;;;;21.42;11.52;;;;;;;11.95;72.44;96984.84;2065997;28;20205;-60
2023/04/18 11:27:43;;;;;;;19.17;10.32;;;;;;;11.99;71.42;96989.03;2065786;28;20201;-60
2023/04/18 11:28:50;;;;;;;16.02;10.88;;;;;;;11.83;71.05;96985.38;2065720;28;20198;-60
2023/04/18 11:29:53;;;;;;;17.10;10.70;;;;;;;11.70;72.36;96983.28;2064264;28;20230;-60
2023/04/18 11:30:58;;;;;;;14.63;10.43;;;;;;;11.43;72.52;96988.81;2065385;28;20725;-60
2023/04/18 11:31:59;;;;;;;16.77;9.90;;;;;;;11.51;72.71;96983.25;2066477;28;20706;-60
2023/04/18 11:33:06;;;;;;;17.83;10.05;;;;;;;11.59;71.94;96989.00;2064320;28;20190;-60
2023/04/18 11:34:07;;;;;;;14.18;9.60;;;;;;;11.92;72.01;96980.59;2067122;28;20545;-60
2023/04/18 11:35:10;;;;;;;13.80;9.60;;;;;;;11.84;72.11;96972.22;2065663;28;20566;-60
2023/04/18 11:36:12;;;;;;;14.98;9.57;;;;;;;12.09;72.18;96979.00;2065420;28;20198;-60
2023/04/18 11:37:14;;;;;;;13.25;9.32;;;;;;;12.11;72.03;96982.41;2063480;28;20230;-60
2023/04/18 11:38:15;;;;;;;15.65;9.65;;;;;;;12.01;70.98;96984.59;2065551;28;20209;-60
2023/04/18 11:39:17;;;;;;;14.13;8.90;;;;;;;12.14;70.71;96976.16;2064706;28;20198;-60
2023/04/18 11:40:19;;;;;;;15.68;9.75;;;;;;;12.18;70.66;96980.38;2065175;28;20225;-60
2023/04/18 11:41:21;;;;;;;16.42;9.85;;;;;;;12.13;70.73;96975.34;2065910;28;20784;-60
2023/04/18 11:42:27;;;;;;;15.18;10.38;;;;;;;11.86;71.47;96987.84;2067118;28;20543;-60
2023/04/18 11:43:32;;;;;;;18.42;9.73;;;;;;;11.89;71.49;96985.13;2064501;28;20237;-60
2023/04/18 11:44:38;;;;;;;15.73;9.63;;;;;;;11.81;71.75;96979.34;2063874;28;20214;-60
2023/04/18 11:45:58;;;;;;;17.63;10.48;;;;;;;11.87;71.97;96989.56;2064906;28;20774;-60
2023/04/18 11:47:00;;;;;;;16.17;9.50;;;;;;;11.81;72.58;96985.44;2066184;28;20257;-61
2023/04/18 11:48:01;;;;;;;13.68;9.38;;;;;;;11.88;72.08;96976.41;2066611;28;20209;-61
2023/04/18 11:49:03;;;;;;;13.80;9.10;;;;;;;11.99;71.35;96983.81;2067290;28;20746;-62
2023/04/18 11:50:06;;;;;;;13.45;8.75;;;;;;;12.10;70.73;96975.50;2065923;28;20253;-62
2023/04/18 11:51:33;;;;;;;11.65;8.15;;;;;;;11.78;71.70;96988.19;2062284;28;20200;-62
2023/04/18 11:52:35;;;;;;;15.35;9.45;;;;;;;11.87;72.32;96986.94;2061316;28;20778;-62
2023/04/18 11:53:38;;;;;;;16.25;9.65;;;;;;;11.99;71.97;96986.44;2061812;28;20205;-63
2023/04/18 11:54:41;;;;;;;17.85;9.60;;;;;;;12.14;71.13;96976.16;2063845;28;20202;-61
2023/04/18 11:55:54;;;;;;;11.40;8.82;;;;;;;12.37;70.95;96983.81;2057134;28;20667;-63
2023/04/18 11:56:56;;;;;;;13.30;8.70;;;;;;;12.33;70.69;96987.50;2058842;28;20199;-63
2023/04/18 11:57:59;;;;;;;15.50;10.05;;;;;;;12.29;70.72;96985.97;2061889;28;20203;-63
2023/04/18 11:59:07;;;;;;;13.68;8.82;;;;;;;12.22;71.85;96982.75;2063738;28;20198;-63
2023/04/18 12:00:11;;;;;;;14.32;9.18;;;;;;;12.30;71.38;96981.56;2059931;28;20619;-62
2023/04/18 12:01:17;;;;;;;14.55;8.65;;;;;;;12.46;70.82;96981.72;2057479;28;20855;-62
2023/04/18 12:02:20;;;;;;;14.95;9.25;;;;;;;12.38;70.90;96993.38;2060671;28;20199;-62
2023/04/18 12:03:23;;;;;;;14.38;8.90;;;;;;;12.22;71.81;96984.53;2059601;28;20202;-62
2023/04/18 12:04:25;;;;;;;16.10;9.82;;;;;;;12.09;72.89;96992.09;2060800;28;20226;-63
2023/04/18 12:05:36;;;;;;;16.70;10.93;;;;;;;11.93;73.54;96991.91;2061335;28;20226;-63
2023/04/18 12:06:49;;;;;;;16.67;12.02;;;;;;;11.90;73.76;96995.50;2060732;28;20204;-63
2023/04/18 12:07:51;;;;;;;17.20;10.88;;;;;;;11.82;74.39;96995.00;2062516;28;20198;-63
2023/04/18 12:09:01;;;;;;;19.27;12.18;;;;;;;11.53;75.20;97004.97;2061361;28;20850;-63
2023/04/18 12:10:08;;;;;;;17.05;11.52;;;;;;;11.42;76.23;97000.19;2057092;28;20230;-63
2023/04/18 12:11:19;;;;;;;19.25;11.88;;;;;;;11.05;76.94;97000.88;2061375;28;20199;-63
2023/04/18 12:12:21;;;;;;;21.50;11.95;;;;;;;10.97;77.19;96998.59;2061660;28;20622;-62
2023/04/18 12:28:35;;;;;;;17.40;10.13;;;;;;;10.93;77.80;96989.16;2086027;28;20554;-59
2023/04/18 12:29:36;;;;;;;16.75;9.95;;;;;;;11.13;76.93;96990.94;2080978;28;20591;-59
2023/04/18 12:30:38;;;;;;;19.10;10.70;;;;;;;11.32;76.49;96987.56;2074689;28;20278;-60
2023/04/18 12:31:39;;;;;;;17.33;10.85;;;;;;;11.63;76.05;96991.47;2075859;28;20247;-62
2023/04/18 12:32:43;;;;;;;21.15;11.93;;;;;;;11.70;75.44;96988.53;2075254;28;20203;-61
2023/04/18 12:33:45;;;;;;;25.35;11.45;;;;;;;11.88;75.64;96986.03;2073953;28;20220;-60
2023/04/18 12:34:46;;;;;;;20.77;11.48;;;;;;;12.01;74.78;96983.72;2071504;28;20238;-60
2023/04/18 12:35:48;;;;;;;16.45;9.90;;;;;;;12.18;74.48;96980.38;2070517;28;20208;-61
2023/04/18 12:36:51;;;;;;;19.45;9.60;;;;;;;12.30;73.85;96982.41;2071441;28;20212;-61
2023/04/18 12:37:55;;;;;;;17.27;10.35;;;;;;;12.56;72.76;96989.03;2073143;28;20240;-61
2023/04/18 12:38:56;;;;;;;17.70;10.82;;;;;;;12.98;72.02;96984.44;2073882;28;20671;-60
2023/04/18 12:39:57;;;;;;;18.63;9.35;;;;;;;13.19;71.45;96979.91;2077599;28;20757;-60
2023/04/18 12:40:59;;;;;;;20.30;10.88;;;;;;;13.05;71.58;96980.59;2078362;28;20292;-60
2023/04/18 12:42:01;;;;;;;17.60;10.95;;;;;;;13.00;72.02;96982.59;2073093;28;20189;-59
2023/04/18 12:43:02;;;;;;;141.50;75.80;;;;;;;13.18;71.60;96982.59;2074151;28;20294;-59
2023/04/18 12:44:04;;;;;;;112.13;62.58;;;;;;;13.07;71.90;96972.66;2075254;28;20202;-59
2023/04/18 12:45:08;;;;;;;79.00;37.10;;;;;;;13.11;71.71;96981.22;2073468;28;20236;-58
2023/04/18 12:46:10;;;;;;;27.45;14.30;;;;;;;12.76;72.41;96979.41;2076410;28;20202;-59
2023/04/18 12:47:11;;;;;;;18.77;10.27;;;;;;;13.28;71.84;96981.25;2078278;28;20910;-59
2023/04/18 12:48:13;;;;;;;19.88;11.60;;;;;;;13.64;70.10;96982.09;2075819;28;20300;-59
2023/04/18 12:49:14;;;;;;;18.00;10.85;;;;;;;13.54;69.20;96974.66;2073266;28;20208;-58
2023/04/18 12:50:21;;;;;;;18.02;10.60;;;;;;;13.39;69.45;96976.34;2073248;28;20220;-60
2023/04/18 12:51:23;;;;;;;18.73;11.35;;;;;;;13.75;69.28;96973.66;2074293;28;20228;-60
2023/04/18 12:52:25;;;;;;;19.77;12.82;;;;;;;13.97;68.43;96974.22;2073754;28;20194;-61
2023/04/18 12:53:26;;;;;;;15.23;10.35;;;;;;;13.81;69.07;96976.78;2072868;28;20205;-60
2023/04/18 12:54:28;;;;;;;17.40;11.75;;;;;;;13.43;69.08;96973.53;2074061;28;20190;-60
2023/04/18 12:55:29;;;;;;;19.75;11.10;;;;;;;13.58;69.25;96978.00;2073899;28;20316;-60
2023/04/18 12:56:31;;;;;;;18.42;12.45;;;;;;;13.76;69.39;96976.19;2073832;28;20583;-60
2023/04/18 12:57:32;;;;;;;19.15;12.60;;;;;;;13.74;69.87;96977.19;2073736;28;20236;-60
2023/04/18 12:58:34;;;;;;;21.27;10.90;;;;;;;13.94;68.86;96978.78;2074840;28;20225;-60
2023/04/18 12:59:35;;;;;;;18.10;10.27;;;;;;;13.93;68.29;96969.19;2070218;28;20206;-60
2023/04/18 13:00:36;;;;;;;16.45;11.30;;;;;;;13.54;68.74;96974.66;2072191;28;20225;-60
2023/04/18 13:01:38;;;;;;;18.80;10.40;;;;;;;13.60;69.40;96978.78;2070684;28;20204;-60
2023/04/18 13:02:42;;;;;;;17.35;10.80;;;;;;;13.37;68.89;96975.53;2071512;28;20205;-61
2023/04/18 13:03:43;;;;;;;16.92;11.25;;;;;;;13.73;68.42;96967.66;2076392;28;20198;-60
2023/04/18 13:04:57;;;;;;;16.48;11.07;;;;;;;14.02;66.62;96976.59;2073905;28;21511;-61
2023/04/18 13:05:58;;;;;;;16.88;10.00;;;;;;;14.25;67.27;96978.00;2073931;28;20193;-60
2023/04/18 13:07:00;;;;;;;17.67;10.43;;;;;;;14.20;66.93;96977.38;2070551;28;20201;-61
2023/04/18 13:08:01;;;;;;;21.02;10.85;;;;;;;13.46;67.02;96974.22;2071736;28;20213;-60
2023/04/18 13:09:06;;;;;;;16.27;9.52;;;;;;;13.84;68.28;96970.53;2073451;28;20208;-61
2023/04/18 13:10:20;;;;;;;21.83;10.32;;;;;;;14.27;67.06;96973.50;2070249;28;20221;-61
2023/04/18 13:11:27;;;;;;;16.80;10.35;;;;;;;14.08;67.18;96965.78;2073418;28;20543;-61
2023/04/18 13:12:29;;;;;;;19.08;11.82;;;;;;;14.27;66.00;96970.03;2072035;28;20206;-61
2023/04/18 13:13:30;;;;;;;13.38;9.32;;;;;;;14.30;66.30;96968.06;2073738;28;20204;-61
2023/04/18 13:14:35;;;;;;;26.70;10.48;;;;;;;14.31;67.11;96971.53;2069790;28;20206;-61
2023/04/18 13:15:37;;;;;;;14.45;9.50;;;;;;;14.34;67.16;96969.59;2071423;28;20229;-61
2023/04/18 13:16:38;;;;;;;17.00;10.48;;;;;;;14.37;66.97;96973.84;2074025;28;20543;-62
2023/04/18 13:17:42;;;;;;;14.35;9.75;;;;;;;14.15;66.41;96971.53;2075579;28;20225;-61
2023/04/18 13:18:44;;;;;;;14.27;9.60;;;;;;;14.04;67.15;96966.84;2074271;28;20212;-61
2023/04/18 13:19:45;;;;;;;16.05;10.18;;;;;;;13.79;67.81;96960.28;2071664;28;20286;-61
2023/04/18 13:20:48;;;;;;;14.73;8.80;;;;;;;13.71;67.23;96967.72;2074815;28;20201;-61
2023/04/18 13:21:49;;;;;;;13.75;9.00;;;;;;;13.66;67.23;96977.59;2073108;28;20263;-61
2023/04/18 13:22:51;;;;;;;12.90;8.20;;;;;;;13.27;66.32;96963.81;2074216;28;20625;-61
2023/04/18 13:23:52;;;;;;;11.82;8.43;;;;;;;13.12;67.16;96968.03;2073205;28;20208;-61
2023/04/18 13:24:54;;;;;;;12.65;8.70;;;;;;;12.95;68.23;96978.50;2074265;28;20575;-63
2023/04/18 13:25:55;;;;;;;14.00;8.05;;;;;;;13.16;68.11;96966.09;2071482;28;20198;-61
2023/04/18 13:26:58;;;;;;;13.43;8.45;;;;;;;13.46;67.77;96966.38;2074497;28;20193;-61
2023/04/18 13:27:59;;;;;;;15.43;7.57;;;;;;;13.65;67.57;96955.78;2074504;28;20249;-61
2023/04/18 13:29:02;;;;;;;14.48;8.80;;;;;;;13.94;66.64;96963.03;2071785;28;20696;-61
2023/04/18 13:30:05;;;;;;;12.77;7.90;;;;;;;14.26;67.00;96963.94;2073877;28;20221;-61
2023/04/18 13:31:07;;;;;;;17.27;10.40;;;;;;;14.29;67.08;96957.66;2072952;28;20201;-61
2023/04/18 13:32:08;;;;;;;17.17;8.82;;;;;;;14.42;66.67;96963.91;2072796;28;20281;-62
2023/04/18 13:33:10;;;;;;;13.20;8.65;;;;;;;14.37;65.65;96965.94;2075900;28;20200;-61
2023/04/18 13:34:12;;;;;;;12.82;8.38;;;;;;;14.50;65.31;96959.09;2075261;28;20254;-61
2023/04/18 13:35:14;;;;;;;11.27;7.88;;;;;;;14.60;65.13;96955.94;2073018;28;20626;-61
2023/04/18 13:36:15;;;;;;;14.55;7.82;;;;;;;14.57;65.77;96951.72;2078964;28;20671;-61
2023/04/18 13:37:17;;;;;;;9.30;6.65;;;;;;;14.51;65.24;96962.56;2079881;28;20213;-61
2023/04/18 13:38:18;;;;;;;17.95;6.68;;;;;;;14.41;63.95;96953.50;2073921;28;20219;-61
2023/04/18 13:39:20;;;;;;;9.30;6.65;;;;;;;14.32;63.90;96963.59;2068862;28;20198;-61
2023/04/18 13:40:21;;;;;;;10.98;6.60;;;;;;;14.28;63.75;96962.06;2066803;28;20750;-62
2023/04/18 13:41:23;;;;;;;10.77;5.30;;;;;;;14.18;64.47;96950.34;2069029;28;20205;-62
2023/04/18 13:42:25;;;;;;;9.55;5.75;;;;;;;14.20;64.68;96959.00;2066846;28;20202;-61
2023/04/18 13:43:26;;;;;;;10.38;5.63;;;;;;;14.05;64.23;96958.06;2068278;28;20660;-61
2023/04/18 13:44:32;;;;;;;8.98;5.30;;;;;;;13.93;65.05;96959.56;2069188;28;20198;-61
2023/04/18 13:45:34;;;;;;;8.25;5.47;;;;;;;13.77;65.91;96966.56;2064448;28;20226;-61
2023/04/18 13:46:35;;;;;;;7.28;5.07;;;;;;;13.78;64.33;96958.59;2067901;28;20202;-60
2023/04/18 13:47:38;;;;;;;7.05;4.78;;;;;;;13.81;65.06;96960.22;2069359;28;20209;-61
2023/04/18 13:48:39;;;;;;;8.27;5.15;;;;;;;13.67;65.37;96966.19;2067014;28;20257;-61
2023/04/18 13:49:41;;;;;;;6.13;3.80;;;;;;;13.41;65.10;96954.41;2064108;28;20540;-61
2023/04/18 13:50:42;;;;;;;7.07;4.75;;;;;;;13.28;64.67;96965.50;2067169;28;20641;-61
2023/04/18 13:51:44;;;;;;;8.90;5.43;;;;;;;13.34;65.49;96966.94;2068035;28;20257;-61
2023/04/18 13:52:48;;;;;;;14.55;5.05;;;;;;;13.24;64.92;96961.31;2074984;28;20229;-61
2023/04/18 13:53:50;;;;;;;7.32;4.45;;;;;;;13.29;65.58;96964.56;2069140;28;20566;-61
2023/04/18 13:54:51;;;;;;;7.72;4.75;;;;;;;13.29;66.36;96961.94;2064189;28;20191;-62
2023/04/18 13:55:53;;;;;;;10.43;5.20;;;;;;;13.22;66.06;96965.81;2065021;28;20226;-61
2023/04/18 13:56:56;;;;;;;8.35;4.82;;;;;;;13.19;66.29;96973.81;2068175;28;20201;-61
2023/04/18 14:13:09;;;;;;;7.07;4.50;;;;;;;12.84;66.94;96963.31;2083174;28;20565;-59
2023/04/18 14:14:11;;;;;;;6.78;4.20;;;;;;;13.00;66.35;96972.13;2082477;28;20220;-59
2023/04/18 14:15:12;;;;;;;8.38;4.47;;;;;;;12.98;66.04;96966.09;2078125;28;20217;-59
2023/04/18 14:16:14;;;;;;;6.32;3.70;;;;;;;12.95;66.54;96960.16;2073262;28;20626;-59
2023/04/18 14:17:16;;;;;;;7.60;4.20;;;;;;;13.05;66.51;96962.25;2070881;28;20202;-59
2023/04/18 14:18:20;;;;;;;8.60;3.92;;;;;;;12.97;66.06;96953.91;2074058;28;20633;-59
2023/04/18 14:19:21;;;;;;;6.60;3.75;;;;;;;13.15;65.57;96962.63;2074776;28;20717;-59
2023/04/18 14:20:24;;;;;;;6.70;3.08;;;;;;;13.23;66.15;96964.88;2066469;28;20234;-59
2023/04/18 14:21:26;;;;;;;6.75;4.00;;;;;;;13.14;65.28;96968.81;2065451;28;20222;-60
2023/04/18 14:25:10;;;;;;;8.25;3.80;;;;;;;12.96;64.53;96967.09;2085050;28;20564;-59
2023/04/18 14:26:12;;;;;;;5.45;3.50;;;;;;;12.89;63.75;96964.78;2083469;28;20212;-59
2023/04/18 14:29:31;;;;;;;5.97;4.00;;;;;;;12.60;63.54;96970.59;2091334;28;20565;-59
2023/04/18 14:32:39;;;;;;;41.72;21.67;;;;;;;12.63;65.58;96978.28;2085302;28;20568;-58
2023/04/18 14:48:46;;;;;;;6.45;4.68;;;;;;;12.34;67.62;96977.88;2083803;28;20563;-58
2023/04/18 14:51:44;;;;;;;7.18;4.40;;;;;;;12.48;68.18;96975.47;2084193;28;20577;-58
2023/04/18 14:54:42;;;;;;;9.93;5.03;;;;;;;12.52;67.90;96977.03;2083264;28;20653;-58
2023/04/18 14:57:39;;;;;;;9.23;5.38;;;;;;;12.47;67.64;96965.91;2084784;28;20587;-57
2023/04/18 15:00:46;;;;;;;10.45;4.63;;;;;;;12.47;66.81;96965.91;2082411;28;20575;-57
2023/04/18 15:01:47;;;;;;;11.10;6.28;;;;;;;12.61;66.46;96970.50;2081446;28;20250;-58
2023/04/18 15:02:49;;;;;;;10.32;4.50;;;;;;;12.63;66.54;96963.41;2081687;28;20204;-58
2023/04/18 15:03:51;;;;;;;11.95;4.80;;;;;;;12.85;66.37;96971.09;2079131;28;20193;-58
2023/04/18 15:04:52;;;;;;;6.78;4.32;;;;;;;12.99;66.81;96967.78;2076933;28;20255;-60
2023/04/18 15:08:17;;;;;;;8.40;5.18;;;;;;;12.81;66.97;96971.31;2083632;27;20581;-57
2023/04/18 15:09:19;;;;;;;8.85;5.00;;;;;;;12.93;67.19;96973.34;2081045;28;20201;-58
2023/04/18 15:12:50;;;;;;;7.10;4.53;;;;;;;12.73;66.81;96975.16;2084284;28;21062;-57
2023/04/18 15:16:05;;;;;;;6.20;3.83;;;;;;;12.62;65.98;96968.72;2100196;27;20556;-57
